AFR18 KLAX-LFPG
Flight info
| Callsign | AFR18 |
|---|---|
| Flight time | N/A |
| Altitude | 35000 |
| Route | KLAX/24L N0492F350 OSHNN1 BEALE J146 DICEE DCT KD45Q DCT KD54U/N0490F370 DCT KD69A DCT KP75C DCT KP81E DCT KP87G DCT KP12M DCT VETRO DCT 5330N07000W/N0483F390 DCT DORYY/M084F400 DCT 58N050W 59N040W 59N030W 58N020W DCT SUNOT DCT KESIX/N0491F410 DCT LUTOV DCT NIPIT DCT LIPGO DCT NUCHU L18 MID/N0507F290 Y803 SFD UM605 BIBAX BIBA9V LFPG/27R |
| Aircraft | A359/H-SDE2E3GHIJ3J4J5LM1ORWXY/LB1D1 |
Departure
| Time | 2026-05-01 08:16 |
|---|---|
| Airport | Los Angeles International Airport (KLAX) |
Arrival
| Time | N/A |
|---|---|
| Airport | Charles de Gaulle International Airport (LFPG) |
| Time | Latitude | Longitude | Altitude | Speed | Heading |
|---|---|---|---|---|---|
| 2026-05-01 07:51 | 33.94461 | -118.41149 | 124 ft | 0 kts | 84° |
| 2026-05-01 08:06 | 33.94461 | -118.41189 | 128 ft | 3 kts | 96° |
| 2026-05-01 08:06 | 33.94463 | -118.41228 | 132 ft | 3 kts | 71° |
| 2026-05-01 08:07 | 33.94435 | -118.41246 | 132 ft | 3 kts | 356° |
| 2026-05-01 08:07 | 33.94417 | -118.41244 | 129 ft | 0 kts | 353° |
| 2026-05-01 08:11 | 33.94504 | -118.41257 | 129 ft | 10 kts | 353° |
| 2026-05-01 08:11 | 33.94682 | -118.41284 | 130 ft | 19 kts | 353° |
| 2026-05-01 08:12 | 33.94812 | -118.41106 | 129 ft | 17 kts | 83° |
| 2026-05-01 08:12 | 33.94827 | -118.40964 | 125 ft | 17 kts | 82° |
| 2026-05-01 08:12 | 33.94858 | -118.40670 | 130 ft | 18 kts | 83° |
| 2026-05-01 08:13 | 33.94873 | -118.40520 | 124 ft | 19 kts | 85° |
| 2026-05-01 08:13 | 33.94891 | -118.40338 | 125 ft | 22 kts | 82° |
| 2026-05-01 08:13 | 33.94920 | -118.40196 | 124 ft | 0 kts | 45° |
| 2026-05-01 08:14 | 33.94953 | -118.40182 | 126 ft | 10 kts | 11° |
| 2026-05-01 08:14 | 33.95004 | -118.40220 | 124 ft | 11 kts | 292° |
| 2026-05-01 08:14 | 33.95006 | -118.40291 | 125 ft | 0 kts | 263° |
| 2026-05-01 08:15 | 33.95002 | -118.40327 | 130 ft | 24 kts | 263° |
| 2026-05-01 08:15 | 33.94956 | -118.40789 | 130 ft | 84 kts | 264° |
| 2026-05-01 08:16 | 33.94863 | -118.41701 | 123 ft | 134 kts | 262° |
| 2026-05-01 08:16 | 33.94732 | -118.42983 | 159 ft | 173 kts | 263° |
| 2026-05-01 08:16 | 33.94569 | -118.44397 | 759 ft | 168 kts | 261° |
| 2026-05-01 08:16 | 33.94407 | -118.45759 | 1394 ft | 161 kts | 261° |
| 2026-05-01 08:17 | 33.94256 | -118.47059 | 1906 ft | 151 kts | 260° |
| 2026-05-01 08:17 | 33.94192 | -118.48366 | 2037 ft | 168 kts | 269° |
| 2026-05-01 08:17 | 33.94194 | -118.49836 | 2201 ft | 182 kts | 269° |
| 2026-05-01 08:17 | 33.94179 | -118.51388 | 2449 ft | 195 kts | 268° |
| 2026-05-01 08:18 | 33.94077 | -118.53075 | 2727 ft | 209 kts | 264° |
| 2026-05-01 08:18 | 33.93770 | -118.56803 | 3324 ft | 239 kts | 265° |
| 2026-05-01 08:19 | 33.93378 | -118.60975 | 4107 ft | 259 kts | 258° |
| 2026-05-01 08:19 | 33.92556 | -118.62905 | 4598 ft | 267 kts | 227° |
| 2026-05-01 08:19 | 33.90946 | -118.64067 | 5079 ft | 276 kts | 194° |
| 2026-05-01 08:19 | 33.89027 | -118.64184 | 5629 ft | 279 kts | 177° |
| 2026-05-01 08:20 | 33.87095 | -118.64009 | 6217 ft | 282 kts | 177° |
| 2026-05-01 08:20 | 33.85153 | -118.63814 | 6816 ft | 284 kts | 174° |
| 2026-05-01 08:20 | 33.83271 | -118.63104 | 7413 ft | 287 kts | 150° |
| 2026-05-01 08:20 | 33.81594 | -118.61798 | 8134 ft | 286 kts | 145° |
| 2026-05-01 08:21 | 33.79953 | -118.60432 | 8849 ft | 287 kts | 145° |
| 2026-05-01 08:21 | 33.78321 | -118.59089 | 9511 ft | 287 kts | 145° |
| 2026-05-01 08:21 | 33.76654 | -118.57725 | 10184 ft | 289 kts | 145° |
| 2026-05-01 08:21 | 33.74941 | -118.56329 | 10496 ft | 304 kts | 145° |
| 2026-05-01 08:22 | 33.73151 | -118.54873 | 10772 ft | 318 kts | 146° |
| 2026-05-01 08:22 | 33.71301 | -118.53351 | 11076 ft | 332 kts | 143° |
| 2026-05-01 08:22 | 33.69651 | -118.51373 | 11338 ft | 345 kts | 122° |
| 2026-05-01 08:22 | 33.68654 | -118.48713 | 11652 ft | 355 kts | 108° |
| 2026-05-01 08:23 | 33.67845 | -118.45862 | 11948 ft | 367 kts | 108° |
| 2026-05-01 08:23 | 33.66999 | -118.42880 | 12249 ft | 378 kts | 106° |
| 2026-05-01 08:23 | 33.66499 | -118.39802 | 12530 ft | 386 kts | 91° |
| 2026-05-01 08:23 | 33.66798 | -118.36594 | 12836 ft | 389 kts | 70° |
| 2026-05-01 08:24 | 33.68004 | -118.33716 | 13284 ft | 388 kts | 53° |
| 2026-05-01 08:24 | 33.69643 | -118.31138 | 13731 ft | 391 kts | 47° |
| 2026-05-01 08:24 | 33.71458 | -118.28682 | 14119 ft | 394 kts | 44° |
| 2026-05-01 08:24 | 33.73354 | -118.26263 | 14507 ft | 397 kts | 44° |
| 2026-05-01 08:25 | 33.75259 | -118.23851 | 14926 ft | 400 kts | 44° |
| 2026-05-01 08:25 | 33.76523 | -118.22234 | 15215 ft | 402 kts | 44° |
| 2026-05-01 08:25 | 33.79057 | -118.18934 | 15767 ft | 406 kts | 45° |
| 2026-05-01 08:25 | 33.80339 | -118.17237 | 16048 ft | 408 kts | 45° |
| 2026-05-01 08:26 | 33.82251 | -118.14686 | 16462 ft | 411 kts | 45° |
| 2026-05-01 08:26 | 33.84150 | -118.12136 | 16849 ft | 415 kts | 45° |
| 2026-05-01 08:26 | 33.86095 | -118.09519 | 17280 ft | 418 kts | 45° |
| 2026-05-01 08:26 | 33.88039 | -118.06899 | 17752 ft | 420 kts | 45° |
| 2026-05-01 08:27 | 33.90000 | -118.04256 | 18172 ft | 424 kts | 45° |
| 2026-05-01 08:27 | 33.91956 | -118.01621 | 18563 ft | 427 kts | 45° |
| 2026-05-01 08:27 | 33.93939 | -117.98948 | 18981 ft | 429 kts | 45° |
| 2026-05-01 08:27 | 33.95963 | -117.96218 | 19417 ft | 431 kts | 45° |
| 2026-05-01 08:28 | 33.97967 | -117.93513 | 19828 ft | 434 kts | 45° |
| 2026-05-01 08:28 | 33.99971 | -117.90808 | 20238 ft | 436 kts | 44° |
| 2026-05-01 08:28 | 34.01977 | -117.88097 | 20645 ft | 438 kts | 44° |
| 2026-05-01 08:28 | 34.04016 | -117.85340 | 21048 ft | 441 kts | 44° |
| 2026-05-01 08:29 | 34.06053 | -117.82582 | 21469 ft | 443 kts | 44° |
| 2026-05-01 08:29 | 34.08119 | -117.79784 | 21905 ft | 445 kts | 44° |
| 2026-05-01 08:29 | 34.10179 | -117.76990 | 22332 ft | 448 kts | 44° |
| 2026-05-01 08:29 | 34.12258 | -117.74170 | 22727 ft | 450 kts | 44° |
| 2026-05-01 08:30 | 34.14337 | -117.71346 | 23196 ft | 453 kts | 44° |
| 2026-05-01 08:30 | 34.16433 | -117.68499 | 23608 ft | 455 kts | 44° |
| 2026-05-01 08:30 | 34.18538 | -117.65635 | 23967 ft | 458 kts | 44° |
| 2026-05-01 08:30 | 34.20661 | -117.62746 | 24285 ft | 460 kts | 44° |
| 2026-05-01 08:31 | 34.22791 | -117.59839 | 24525 ft | 463 kts | 44° |
| 2026-05-01 08:31 | 34.24926 | -117.56927 | 24858 ft | 465 kts | 44° |
| 2026-05-01 08:31 | 34.27087 | -117.53979 | 25184 ft | 469 kts | 44° |
| 2026-05-01 08:31 | 34.29237 | -117.51047 | 25537 ft | 471 kts | 44° |
| 2026-05-01 08:32 | 34.31430 | -117.48052 | 25899 ft | 473 kts | 44° |
| 2026-05-01 08:32 | 34.33585 | -117.45103 | 26244 ft | 475 kts | 43° |
| 2026-05-01 08:32 | 34.35811 | -117.42054 | 26594 ft | 478 kts | 43° |
| 2026-05-01 08:32 | 34.38021 | -117.39025 | 26929 ft | 481 kts | 43° |
| 2026-05-01 08:33 | 34.40240 | -117.35984 | 27245 ft | 483 kts | 43° |
| 2026-05-01 08:33 | 34.42464 | -117.32930 | 27570 ft | 486 kts | 43° |
| 2026-05-01 08:33 | 34.44705 | -117.29850 | 27897 ft | 488 kts | 43° |
| 2026-05-01 08:33 | 34.46962 | -117.26747 | 28277 ft | 491 kts | 43° |
| 2026-05-01 08:34 | 34.49190 | -117.23679 | 28593 ft | 493 kts | 43° |
| 2026-05-01 08:34 | 34.51467 | -117.20540 | 28873 ft | 495 kts | 43° |
| 2026-05-01 08:34 | 34.53747 | -117.17396 | 29114 ft | 497 kts | 43° |
| 2026-05-01 08:34 | 34.56004 | -117.14279 | 29433 ft | 499 kts | 43° |
| 2026-05-01 08:35 | 34.58303 | -117.11103 | 29746 ft | 500 kts | 43° |
| 2026-05-01 08:35 | 34.60607 | -117.07915 | 30123 ft | 500 kts | 43° |
| 2026-05-01 08:35 | 34.62898 | -117.04743 | 30426 ft | 500 kts | 43° |
| 2026-05-01 08:35 | 34.65193 | -117.01562 | 30707 ft | 501 kts | 43° |
| 2026-05-01 08:36 | 34.67435 | -116.98454 | 30981 ft | 501 kts | 43° |
| 2026-05-01 08:36 | 34.69766 | -116.95219 | 31286 ft | 501 kts | 43° |
| 2026-05-01 08:36 | 34.72046 | -116.92051 | 31568 ft | 501 kts | 43° |
| 2026-05-01 08:36 | 34.74353 | -116.88844 | 31878 ft | 501 kts | 43° |
| 2026-05-01 08:37 | 34.76600 | -116.85716 | 32191 ft | 501 kts | 43° |
| 2026-05-01 08:37 | 34.78902 | -116.82508 | 32440 ft | 502 kts | 43° |
| 2026-05-01 08:37 | 34.81189 | -116.79319 | 32711 ft | 502 kts | 43° |
| 2026-05-01 08:37 | 34.83490 | -116.76109 | 32978 ft | 502 kts | 42° |
| 2026-05-01 08:38 | 34.85776 | -116.72917 | 33229 ft | 502 kts | 42° |
| 2026-05-01 08:38 | 34.88067 | -116.69714 | 33506 ft | 501 kts | 42° |
| 2026-05-01 08:38 | 34.90344 | -116.66527 | 33795 ft | 500 kts | 42° |
| 2026-05-01 08:38 | 34.92632 | -116.63321 | 34019 ft | 500 kts | 42° |
| 2026-05-01 08:39 | 34.94902 | -116.60140 | 34176 ft | 500 kts | 42° |
| 2026-05-01 08:39 | 34.97203 | -116.56912 | 34352 ft | 500 kts | 42° |
| 2026-05-01 08:39 | 34.99469 | -116.53729 | 34528 ft | 501 kts | 42° |
| 2026-05-01 08:39 | 35.01774 | -116.50489 | 34707 ft | 501 kts | 42° |
| 2026-05-01 08:40 | 35.06335 | -116.44072 | 34866 ft | 505 kts | 42° |
| 2026-05-01 08:40 | 35.10936 | -116.37591 | 34859 ft | 509 kts | 42° |
| 2026-05-01 08:41 | 35.15557 | -116.31053 | 34864 ft | 507 kts | 42° |
| 2026-05-01 08:41 | 35.20181 | -116.24500 | 34879 ft | 507 kts | 42° |
| 2026-05-01 08:42 | 35.24782 | -116.17973 | 34867 ft | 506 kts | 42° |
| 2026-05-01 08:42 | 35.29383 | -116.11435 | 34880 ft | 506 kts | 42° |
| 2026-05-01 08:43 | 35.33974 | -116.04900 | 34878 ft | 506 kts | 42° |
| 2026-05-01 08:43 | 35.38556 | -115.98363 | 34897 ft | 506 kts | 42° |
| 2026-05-01 08:44 | 35.43144 | -115.91807 | 34900 ft | 506 kts | 42° |
| 2026-05-01 08:44 | 35.47727 | -115.85242 | 34919 ft | 506 kts | 42° |
| 2026-05-01 08:45 | 35.52305 | -115.78674 | 34923 ft | 506 kts | 42° |
| 2026-05-01 08:45 | 35.56846 | -115.72147 | 34941 ft | 506 kts | 42° |
| 2026-05-01 08:46 | 35.61446 | -115.65522 | 34938 ft | 506 kts | 42° |
| 2026-05-01 08:46 | 35.65997 | -115.58955 | 34953 ft | 507 kts | 42° |
| 2026-05-01 08:47 | 35.70570 | -115.52346 | 34936 ft | 508 kts | 42° |
| 2026-05-01 08:47 | 35.75159 | -115.45696 | 34960 ft | 509 kts | 42° |
| 2026-05-01 08:48 | 35.79726 | -115.39067 | 34962 ft | 508 kts | 43° |
| 2026-05-01 08:48 | 35.84272 | -115.32455 | 34993 ft | 509 kts | 43° |
| 2026-05-01 08:49 | 35.88890 | -115.25729 | 34999 ft | 512 kts | 42° |
| 2026-05-01 08:49 | 35.93491 | -115.19013 | 34991 ft | 513 kts | 42° |
| 2026-05-01 08:50 | 35.98077 | -115.12301 | 34984 ft | 513 kts | 43° |
| 2026-05-01 08:50 | 36.02679 | -115.05553 | 34988 ft | 513 kts | 43° |
| 2026-05-01 08:51 | 36.07276 | -114.98802 | 34946 ft | 514 kts | 43° |
| 2026-05-01 08:51 | 36.11870 | -114.92043 | 34887 ft | 514 kts | 43° |
| 2026-05-01 08:52 | 36.16450 | -114.85200 | 34883 ft | 517 kts | 46° |
| 2026-05-01 08:52 | 36.19897 | -114.77327 | 34870 ft | 531 kts | 62° |
| 2026-05-01 08:53 | 36.22588 | -114.68741 | 34852 ft | 534 kts | 64° |
| 2026-05-01 08:53 | 36.25166 | -114.60103 | 34817 ft | 534 kts | 64° |
| 2026-05-01 08:54 | 36.27759 | -114.51495 | 34841 ft | 534 kts | 64° |
| 2026-05-01 08:54 | 36.30368 | -114.42883 | 34818 ft | 533 kts | 64° |
| 2026-05-01 08:55 | 36.32983 | -114.34250 | 34828 ft | 532 kts | 64° |
| 2026-05-01 08:55 | 36.35560 | -114.25706 | 34825 ft | 532 kts | 64° |
| 2026-05-01 08:56 | 36.38141 | -114.17113 | 34828 ft | 532 kts | 64° |
| 2026-05-01 08:56 | 36.40724 | -114.08492 | 34838 ft | 532 kts | 64° |
| 2026-05-01 08:57 | 36.43291 | -113.99899 | 34860 ft | 531 kts | 65° |
| 2026-05-01 08:57 | 36.45842 | -113.91336 | 34861 ft | 530 kts | 65° |
| 2026-05-01 08:58 | 36.48388 | -113.82765 | 34878 ft | 531 kts | 65° |
| 2026-05-01 08:58 | 36.50942 | -113.74130 | 34909 ft | 530 kts | 66° |
| 2026-05-01 08:59 | 36.53485 | -113.65506 | 34892 ft | 530 kts | 66° |
| 2026-05-01 08:59 | 36.55998 | -113.56963 | 34905 ft | 529 kts | 66° |
| 2026-05-01 09:00 | 36.58523 | -113.48362 | 34922 ft | 529 kts | 66° |
| 2026-05-01 09:00 | 36.61040 | -113.39750 | 34925 ft | 530 kts | 66° |
| 2026-05-01 09:01 | 36.63557 | -113.31113 | 34930 ft | 529 kts | 66° |
| 2026-05-01 09:01 | 36.66059 | -113.22489 | 34948 ft | 529 kts | 67° |
| 2026-05-01 09:02 | 36.68553 | -113.13857 | 34979 ft | 529 kts | 67° |
| 2026-05-01 09:02 | 36.71028 | -113.05268 | 35005 ft | 529 kts | 67° |
| 2026-05-01 09:03 | 36.73506 | -112.96641 | 35021 ft | 529 kts | 67° |
| 2026-05-01 09:03 | 36.75990 | -112.87973 | 35019 ft | 529 kts | 67° |
| 2026-05-01 09:04 | 36.78458 | -112.79330 | 35007 ft | 529 kts | 68° |
| 2026-05-01 09:04 | 36.80921 | -112.70681 | 34987 ft | 529 kts | 68° |
| 2026-05-01 09:05 | 36.83355 | -112.62100 | 34961 ft | 529 kts | 68° |
| 2026-05-01 09:05 | 36.85809 | -112.53421 | 34954 ft | 529 kts | 68° |
| 2026-05-01 09:06 | 36.88261 | -112.44726 | 34971 ft | 529 kts | 69° |
| 2026-05-01 09:06 | 36.90705 | -112.36045 | 34963 ft | 530 kts | 69° |
| 2026-05-01 09:07 | 36.93133 | -112.27372 | 34966 ft | 530 kts | 69° |
| 2026-05-01 09:07 | 36.95568 | -112.18636 | 34963 ft | 530 kts | 69° |
| 2026-05-01 09:08 | 36.97976 | -112.09985 | 34964 ft | 530 kts | 69° |
| 2026-05-01 09:08 | 37.00399 | -112.01261 | 34954 ft | 531 kts | 69° |
| 2026-05-01 09:09 | 37.02818 | -111.92521 | 34936 ft | 531 kts | 69° |
| 2026-05-01 09:09 | 37.05224 | -111.83803 | 34953 ft | 531 kts | 69° |
| 2026-05-01 09:10 | 37.07624 | -111.75075 | 34922 ft | 531 kts | 69° |
| 2026-05-01 09:10 | 37.10025 | -111.66317 | 34933 ft | 532 kts | 69° |
| 2026-05-01 09:11 | 37.12422 | -111.57543 | 34923 ft | 532 kts | 69° |
| 2026-05-01 09:11 | 37.14816 | -111.48748 | 34984 ft | 532 kts | 69° |
| 2026-05-01 09:12 | 37.16791 | -111.41474 | 34983 ft | 532 kts | 69° |
| 2026-05-01 09:12 | 37.19558 | -111.31248 | 34964 ft | 532 kts | 70° |
| 2026-05-01 09:13 | 37.21934 | -111.22434 | 34932 ft | 532 kts | 70° |
| 2026-05-01 09:13 | 37.23819 | -111.15013 | 34926 ft | 533 kts | 72° |
| 2026-05-01 09:14 | 37.25841 | -111.06102 | 34931 ft | 535 kts | 72° |
| 2026-05-01 09:14 | 37.27879 | -110.97098 | 34939 ft | 537 kts | 72° |
| 2026-05-01 09:15 | 37.29959 | -110.88067 | 34939 ft | 537 kts | 72° |
| 2026-05-01 09:15 | 37.32034 | -110.79109 | 34939 ft | 537 kts | 72° |
| 2026-05-01 09:16 | 37.34107 | -110.70131 | 34943 ft | 537 kts | 72° |
| 2026-05-01 09:17 | 37.37215 | -110.56596 | 34945 ft | 537 kts | 73° |
| 2026-05-01 09:17 | 37.40308 | -110.43039 | 34951 ft | 538 kts | 73° |
| 2026-05-01 09:18 | 37.43385 | -110.29479 | 34954 ft | 538 kts | 73° |
| 2026-05-01 09:19 | 37.46457 | -110.15857 | 34961 ft | 538 kts | 73° |
| 2026-05-01 09:20 | 37.49516 | -110.02314 | 34963 ft | 539 kts | 71° |
| 2026-05-01 09:21 | 37.55848 | -109.85287 | 34969 ft | 537 kts | 61° |
| 2026-05-01 09:21 | 37.60892 | -109.72667 | 34976 ft | 538 kts | 62° |
| 2026-05-01 09:22 | 37.67587 | -109.55753 | 35084 ft | 538 kts | 62° |
| 2026-05-01 09:23 | 37.72583 | -109.43054 | 35065 ft | 538 kts | 62° |
| 2026-05-01 09:24 | 37.77558 | -109.30359 | 35025 ft | 539 kts | 62° |
| 2026-05-01 09:25 | 37.84194 | -109.13346 | 34994 ft | 539 kts | 62° |
| 2026-05-01 09:26 | 37.89165 | -109.00543 | 35005 ft | 541 kts | 62° |
| 2026-05-01 09:26 | 37.94132 | -108.87696 | 35005 ft | 541 kts | 62° |
| 2026-05-01 09:27 | 37.99066 | -108.74877 | 35014 ft | 541 kts | 62° |
| 2026-05-01 09:28 | 38.02371 | -108.66264 | 35013 ft | 542 kts | 62° |
| 2026-05-01 09:28 | 38.05646 | -108.57705 | 35012 ft | 542 kts | 62° |
| 2026-05-01 09:29 | 38.10592 | -108.44730 | 35046 ft | 542 kts | 62° |
| 2026-05-01 09:30 | 38.15480 | -108.31857 | 35037 ft | 543 kts | 62° |
| 2026-05-01 09:30 | 38.20394 | -108.18857 | 35034 ft | 543 kts | 62° |
| 2026-05-01 09:31 | 38.23661 | -108.10181 | 35061 ft | 543 kts | 62° |
| 2026-05-01 09:32 | 38.28531 | -107.97207 | 35099 ft | 543 kts | 62° |
| 2026-05-01 09:32 | 38.33389 | -107.84208 | 35117 ft | 543 kts | 62° |
| 2026-05-01 09:33 | 38.36630 | -107.75505 | 35052 ft | 543 kts | 62° |
| 2026-05-01 09:34 | 38.41488 | -107.62414 | 35059 ft | 543 kts | 62° |
| 2026-05-01 09:34 | 38.46301 | -107.49385 | 35061 ft | 544 kts | 63° |
| 2026-05-01 09:35 | 38.51117 | -107.36290 | 35089 ft | 543 kts | 62° |
| 2026-05-01 09:36 | 38.54328 | -107.27531 | 35119 ft | 544 kts | 62° |
| 2026-05-01 09:36 | 38.57533 | -107.18761 | 35139 ft | 544 kts | 63° |
| 2026-05-01 09:37 | 38.60728 | -107.09992 | 35158 ft | 544 kts | 63° |
| 2026-05-01 09:37 | 38.65512 | -106.96813 | 35167 ft | 545 kts | 63° |
| 2026-05-01 09:38 | 38.70230 | -106.83758 | 35101 ft | 546 kts | 63° |
| 2026-05-01 09:39 | 38.75001 | -106.70504 | 35088 ft | 546 kts | 63° |
| 2026-05-01 09:39 | 38.78178 | -106.61643 | 35086 ft | 547 kts | 63° |
| 2026-05-01 09:40 | 38.82931 | -106.48329 | 35118 ft | 547 kts | 63° |
| 2026-05-01 09:41 | 38.86072 | -106.39502 | 35154 ft | 547 kts | 63° |
| 2026-05-01 09:41 | 38.90801 | -106.26160 | 35202 ft | 548 kts | 63° |
| 2026-05-01 09:42 | 38.93952 | -106.17236 | 35214 ft | 549 kts | 63° |
| 2026-05-01 09:43 | 39.00360 | -105.99397 | 35204 ft | 546 kts | 57° |
| 2026-05-01 09:43 | 39.04155 | -105.90915 | 35131 ft | 547 kts | 56° |
| 2026-05-01 09:44 | 39.09930 | -105.78283 | 35143 ft | 547 kts | 56° |
| 2026-05-01 09:45 | 39.13756 | -105.69891 | 35143 ft | 547 kts | 56° |
| 2026-05-01 09:45 | 39.19532 | -105.57155 | 35172 ft | 548 kts | 56° |
| 2026-05-01 09:46 | 39.23345 | -105.48716 | 35192 ft | 548 kts | 56° |
| 2026-05-01 09:46 | 39.27178 | -105.40210 | 35204 ft | 547 kts | 56° |
| 2026-05-01 09:47 | 39.30972 | -105.31769 | 35221 ft | 547 kts | 56° |
| 2026-05-01 09:47 | 39.34796 | -105.23236 | 35218 ft | 548 kts | 56° |
| 2026-05-01 09:48 | 39.38601 | -105.14723 | 35230 ft | 548 kts | 56° |
| 2026-05-01 09:48 | 39.42434 | -105.06125 | 35237 ft | 548 kts | 56° |
| 2026-05-01 09:49 | 39.46201 | -104.97650 | 35216 ft | 549 kts | 56° |
| 2026-05-01 09:49 | 39.50016 | -104.89046 | 35213 ft | 549 kts | 57° |
| 2026-05-01 09:50 | 39.53810 | -104.80462 | 35203 ft | 547 kts | 57° |
| 2026-05-01 09:50 | 39.57572 | -104.71926 | 35219 ft | 544 kts | 57° |
| 2026-05-01 09:51 | 39.61309 | -104.63429 | 35212 ft | 543 kts | 57° |
| 2026-05-01 09:51 | 39.65038 | -104.54928 | 35224 ft | 544 kts | 57° |
| 2026-05-01 09:52 | 39.68775 | -104.46381 | 35205 ft | 544 kts | 57° |
| 2026-05-01 09:52 | 39.72495 | -104.37852 | 35204 ft | 544 kts | 57° |
| 2026-05-01 09:53 | 39.76237 | -104.29246 | 35215 ft | 544 kts | 57° |
| 2026-05-01 09:53 | 39.79950 | -104.20685 | 35218 ft | 544 kts | 57° |
| 2026-05-01 09:54 | 39.83643 | -104.12145 | 35192 ft | 545 kts | 57° |
| 2026-05-01 09:54 | 39.87369 | -104.03505 | 35188 ft | 545 kts | 57° |
| 2026-05-01 09:55 | 39.91037 | -103.94976 | 35187 ft | 545 kts | 57° |
| 2026-05-01 09:55 | 39.94740 | -103.86341 | 35193 ft | 545 kts | 57° |
| 2026-05-01 09:56 | 39.98437 | -103.77696 | 35194 ft | 545 kts | 57° |
| 2026-05-01 09:56 | 40.02114 | -103.69074 | 35194 ft | 545 kts | 57° |
| 2026-05-01 09:57 | 40.05807 | -103.60390 | 35200 ft | 545 kts | 57° |
| 2026-05-01 09:57 | 40.09469 | -103.51754 | 35194 ft | 545 kts | 58° |
| 2026-05-01 09:58 | 40.13125 | -103.43109 | 35205 ft | 545 kts | 58° |
| 2026-05-01 09:58 | 40.16760 | -103.34486 | 35193 ft | 541 kts | 58° |
| 2026-05-01 09:59 | 40.19775 | -103.27316 | 35193 ft | 541 kts | 58° |
| 2026-05-01 09:59 | 40.24018 | -103.17199 | 35192 ft | 541 kts | 58° |
| 2026-05-01 10:00 | 40.27613 | -103.08600 | 35194 ft | 541 kts | 58° |
| 2026-05-01 10:00 | 40.30624 | -103.01381 | 35194 ft | 541 kts | 58° |
| 2026-05-01 10:01 | 40.34212 | -102.92755 | 35189 ft | 541 kts | 58° |
| 2026-05-01 10:01 | 40.37808 | -102.84082 | 35181 ft | 541 kts | 58° |
| 2026-05-01 10:02 | 40.41409 | -102.75376 | 35190 ft | 541 kts | 58° |
| 2026-05-01 10:02 | 40.44996 | -102.66675 | 35188 ft | 541 kts | 58° |
| 2026-05-01 10:03 | 40.48535 | -102.58064 | 35184 ft | 539 kts | 58° |
| 2026-05-01 10:03 | 40.52087 | -102.49403 | 35173 ft | 539 kts | 58° |
| 2026-05-01 10:04 | 40.55650 | -102.40689 | 35187 ft | 539 kts | 58° |
| 2026-05-01 10:04 | 40.59192 | -102.32000 | 35186 ft | 540 kts | 58° |
| 2026-05-01 10:05 | 40.62743 | -102.23265 | 35154 ft | 541 kts | 58° |
| 2026-05-01 10:05 | 40.66290 | -102.14509 | 35157 ft | 541 kts | 58° |
| 2026-05-01 10:06 | 40.69812 | -102.05792 | 35167 ft | 541 kts | 58° |
| 2026-05-01 10:06 | 40.73321 | -101.97080 | 35183 ft | 541 kts | 58° |
| 2026-05-01 10:07 | 40.76845 | -101.88305 | 35182 ft | 539 kts | 58° |
| 2026-05-01 10:07 | 40.80346 | -101.79564 | 35156 ft | 538 kts | 58° |
| 2026-05-01 10:08 | 40.85580 | -101.66450 | 35170 ft | 539 kts | 58° |
| 2026-05-01 10:09 | 40.89053 | -101.57717 | 35164 ft | 540 kts | 58° |
| 2026-05-01 10:09 | 40.92539 | -101.48921 | 35171 ft | 540 kts | 58° |
| 2026-05-01 10:10 | 40.96020 | -101.40114 | 35180 ft | 540 kts | 58° |
| 2026-05-01 10:10 | 41.01238 | -101.26861 | 35224 ft | 540 kts | 58° |
| 2026-05-01 10:11 | 41.04692 | -101.18053 | 35195 ft | 537 kts | 58° |
| 2026-05-01 10:11 | 41.08132 | -101.09257 | 35191 ft | 537 kts | 58° |
| 2026-05-01 10:12 | 41.11539 | -101.00522 | 35186 ft | 537 kts | 58° |
| 2026-05-01 10:13 | 41.16675 | -100.87301 | 35178 ft | 537 kts | 59° |
| 2026-05-01 10:13 | 41.20074 | -100.78520 | 35176 ft | 537 kts | 59° |
| 2026-05-01 10:14 | 41.25198 | -100.65230 | 35176 ft | 537 kts | 59° |
| 2026-05-01 10:14 | 41.28573 | -100.56445 | 35200 ft | 537 kts | 59° |
| 2026-05-01 10:15 | 41.31971 | -100.47569 | 35179 ft | 535 kts | 59° |
| 2026-05-01 10:15 | 41.35334 | -100.38759 | 35179 ft | 534 kts | 59° |
| 2026-05-01 10:16 | 41.38690 | -100.29944 | 35179 ft | 534 kts | 59° |
| 2026-05-01 10:17 | 41.43689 | -100.16763 | 35184 ft | 534 kts | 59° |
| 2026-05-01 10:17 | 41.48714 | -100.03454 | 35178 ft | 535 kts | 59° |
| 2026-05-01 10:18 | 41.54642 | -99.90969 | 35183 ft | 530 kts | 51° |
| 2026-05-01 10:19 | 41.58811 | -99.82880 | 35202 ft | 528 kts | 51° |
| 2026-05-01 10:19 | 41.62993 | -99.74762 | 35182 ft | 528 kts | 51° |
| 2026-05-01 10:20 | 41.69187 | -99.62667 | 35184 ft | 529 kts | 51° |
| 2026-05-01 10:20 | 41.73330 | -99.54536 | 35185 ft | 529 kts | 51° |
| 2026-05-01 10:21 | 41.79534 | -99.42322 | 35198 ft | 529 kts | 51° |
| 2026-05-01 10:22 | 41.85736 | -99.30062 | 35194 ft | 528 kts | 51° |
| 2026-05-01 10:23 | 41.91869 | -99.17890 | 35199 ft | 527 kts | 51° |
| 2026-05-01 10:23 | 41.98019 | -99.05639 | 35207 ft | 527 kts | 52° |
| 2026-05-01 10:24 | 42.06216 | -98.89231 | 35232 ft | 528 kts | 52° |
| 2026-05-01 10:25 | 42.14334 | -98.72885 | 35210 ft | 524 kts | 52° |
| 2026-05-01 10:26 | 42.18382 | -98.64708 | 35209 ft | 525 kts | 52° |
| 2026-05-01 10:27 | 42.26479 | -98.48278 | 35195 ft | 525 kts | 52° |
| 2026-05-01 10:28 | 42.32508 | -98.35984 | 35211 ft | 525 kts | 52° |
| 2026-05-01 10:28 | 42.38537 | -98.23638 | 35201 ft | 524 kts | 53° |
| 2026-05-01 10:29 | 42.44529 | -98.11322 | 35188 ft | 525 kts | 53° |
| 2026-05-01 10:30 | 42.48530 | -98.03069 | 35571 ft | 524 kts | 53° |
| 2026-05-01 10:30 | 42.52567 | -97.94851 | 35946 ft | 523 kts | 51° |
| 2026-05-01 10:31 | 42.56757 | -97.86786 | 36292 ft | 522 kts | 51° |
| 2026-05-01 10:31 | 42.60958 | -97.78724 | 36614 ft | 523 kts | 51° |
| 2026-05-01 10:32 | 42.65120 | -97.70643 | 36910 ft | 523 kts | 51° |
| 2026-05-01 10:32 | 42.67203 | -97.66576 | 37049 ft | 523 kts | 51° |
| 2026-05-01 10:32 | 42.71352 | -97.58444 | 37213 ft | 525 kts | 51° |
| 2026-05-01 10:33 | 42.75513 | -97.50270 | 37194 ft | 525 kts | 51° |
| 2026-05-01 10:34 | 42.81739 | -97.37995 | 37194 ft | 524 kts | 52° |
| 2026-05-01 10:34 | 42.85844 | -97.29878 | 37184 ft | 523 kts | 52° |
| 2026-05-01 10:35 | 42.92033 | -97.17597 | 37172 ft | 523 kts | 52° |
| 2026-05-01 10:35 | 42.96124 | -97.09451 | 37174 ft | 523 kts | 52° |
| 2026-05-01 10:36 | 43.02286 | -96.97140 | 37187 ft | 523 kts | 52° |
| 2026-05-01 10:37 | 43.06385 | -96.88921 | 37171 ft | 521 kts | 52° |
| 2026-05-01 10:37 | 43.12499 | -96.76620 | 37159 ft | 521 kts | 52° |
| 2026-05-01 10:38 | 43.16571 | -96.68399 | 37151 ft | 521 kts | 52° |
| 2026-05-01 10:38 | 43.20649 | -96.60144 | 37153 ft | 522 kts | 52° |
| 2026-05-01 10:39 | 43.24703 | -96.51915 | 37165 ft | 521 kts | 52° |
| 2026-05-01 10:39 | 43.28731 | -96.43712 | 37151 ft | 520 kts | 52° |
| 2026-05-01 10:40 | 43.32769 | -96.35468 | 37148 ft | 519 kts | 53° |
| 2026-05-01 10:40 | 43.36794 | -96.27228 | 37148 ft | 519 kts | 53° |
| 2026-05-01 10:41 | 43.40798 | -96.19009 | 37143 ft | 520 kts | 53° |
| 2026-05-01 10:42 | 43.46831 | -96.06581 | 37143 ft | 520 kts | 53° |
| 2026-05-01 10:42 | 43.50825 | -95.98331 | 37146 ft | 518 kts | 53° |
| 2026-05-01 10:43 | 43.54960 | -95.90227 | 37149 ft | 517 kts | 51° |
| 2026-05-01 10:43 | 43.59174 | -95.82173 | 37149 ft | 517 kts | 51° |
| 2026-05-01 10:44 | 43.63360 | -95.74087 | 37155 ft | 517 kts | 51° |
| 2026-05-01 10:44 | 43.67520 | -95.65974 | 37146 ft | 517 kts | 51° |
| 2026-05-01 10:45 | 43.71642 | -95.57897 | 37118 ft | 516 kts | 52° |
| 2026-05-01 10:45 | 43.75769 | -95.49787 | 37114 ft | 514 kts | 52° |
| 2026-05-01 10:46 | 43.79875 | -95.41700 | 37121 ft | 514 kts | 52° |
| 2026-05-01 10:46 | 43.83994 | -95.33567 | 37128 ft | 514 kts | 52° |
| 2026-05-01 10:47 | 43.88070 | -95.25497 | 37128 ft | 514 kts | 52° |
| 2026-05-01 10:47 | 43.92173 | -95.17351 | 37133 ft | 515 kts | 52° |
| 2026-05-01 10:48 | 43.96254 | -95.09223 | 37125 ft | 513 kts | 52° |
| 2026-05-01 10:48 | 43.99627 | -95.02490 | 37123 ft | 512 kts | 52° |
| 2026-05-01 10:49 | 44.03707 | -94.94325 | 37132 ft | 513 kts | 52° |
| 2026-05-01 10:49 | 44.07769 | -94.86173 | 37129 ft | 513 kts | 52° |
| 2026-05-01 10:50 | 44.11831 | -94.77999 | 37127 ft | 513 kts | 52° |
| 2026-05-01 10:50 | 44.15887 | -94.69811 | 37131 ft | 512 kts | 52° |
| 2026-05-01 10:51 | 44.19920 | -94.61647 | 37114 ft | 511 kts | 52° |
| 2026-05-01 10:51 | 44.23924 | -94.53521 | 37131 ft | 511 kts | 52° |
| 2026-05-01 10:52 | 44.27926 | -94.45377 | 37121 ft | 512 kts | 52° |
| 2026-05-01 10:52 | 44.31948 | -94.37167 | 37104 ft | 512 kts | 53° |
| 2026-05-01 10:53 | 44.35953 | -94.28969 | 37117 ft | 511 kts | 53° |
| 2026-05-01 10:53 | 44.39953 | -94.20756 | 37123 ft | 510 kts | 53° |
| 2026-05-01 10:54 | 44.43944 | -94.12541 | 37131 ft | 510 kts | 53° |
| 2026-05-01 10:54 | 44.47941 | -94.04291 | 37128 ft | 511 kts | 53° |
| 2026-05-01 10:55 | 44.51885 | -93.96098 | 37119 ft | 511 kts | 53° |
| 2026-05-01 10:55 | 44.55743 | -93.87722 | 37136 ft | 511 kts | 54° |
| 2026-05-01 10:56 | 44.59564 | -93.79317 | 37123 ft | 510 kts | 54° |
| 2026-05-01 10:56 | 44.63383 | -93.70951 | 37116 ft | 509 kts | 54° |
| 2026-05-01 10:57 | 44.67223 | -93.62553 | 37109 ft | 509 kts | 54° |
| 2026-05-01 10:57 | 44.71019 | -93.54230 | 37104 ft | 509 kts | 54° |
| 2026-05-01 10:58 | 44.74851 | -93.45805 | 37101 ft | 510 kts | 54° |
| 2026-05-01 10:58 | 44.78641 | -93.37444 | 37101 ft | 509 kts | 54° |
| 2026-05-01 10:59 | 44.82473 | -93.28965 | 37119 ft | 509 kts | 54° |
| 2026-05-01 10:59 | 44.86278 | -93.20523 | 37119 ft | 510 kts | 55° |
| 2026-05-01 11:00 | 44.90063 | -93.12099 | 37126 ft | 510 kts | 55° |
| 2026-05-01 11:00 | 44.93838 | -93.03671 | 37136 ft | 510 kts | 55° |
| 2026-05-01 11:01 | 44.97619 | -92.95205 | 37130 ft | 509 kts | 55° |
| 2026-05-01 11:01 | 45.01392 | -92.86732 | 37139 ft | 507 kts | 55° |
| 2026-05-01 11:02 | 45.05118 | -92.78340 | 37137 ft | 507 kts | 55° |
| 2026-05-01 11:02 | 45.08867 | -92.69873 | 37131 ft | 507 kts | 55° |
| 2026-05-01 11:03 | 45.12611 | -92.61391 | 37129 ft | 508 kts | 55° |
| 2026-05-01 11:03 | 45.16351 | -92.52892 | 37128 ft | 508 kts | 55° |
| 2026-05-01 11:04 | 45.20086 | -92.44380 | 37128 ft | 506 kts | 55° |
| 2026-05-01 11:04 | 45.23790 | -92.35910 | 37132 ft | 506 kts | 55° |
| 2026-05-01 11:05 | 45.27492 | -92.27422 | 37138 ft | 506 kts | 55° |
| 2026-05-01 11:05 | 45.31179 | -92.18943 | 37138 ft | 507 kts | 56° |
| 2026-05-01 11:06 | 45.34874 | -92.10419 | 37128 ft | 507 kts | 56° |
| 2026-05-01 11:06 | 45.38566 | -92.01878 | 37127 ft | 506 kts | 56° |
| 2026-05-01 11:07 | 45.44061 | -91.89113 | 37132 ft | 504 kts | 56° |
| 2026-05-01 11:07 | 45.47716 | -91.80593 | 37138 ft | 504 kts | 56° |
| 2026-05-01 11:08 | 45.51363 | -91.72063 | 37140 ft | 505 kts | 56° |
| 2026-05-01 11:09 | 45.56844 | -91.59198 | 37149 ft | 505 kts | 56° |
| 2026-05-01 11:09 | 45.60481 | -91.50627 | 37143 ft | 503 kts | 56° |
| 2026-05-01 11:10 | 45.65884 | -91.37848 | 37146 ft | 503 kts | 56° |
| 2026-05-01 11:10 | 45.69501 | -91.29259 | 37143 ft | 503 kts | 56° |
| 2026-05-01 11:11 | 45.73106 | -91.20675 | 37147 ft | 503 kts | 56° |
| 2026-05-01 11:11 | 45.76708 | -91.12069 | 37139 ft | 504 kts | 56° |
| 2026-05-01 11:12 | 45.80300 | -91.03461 | 37142 ft | 503 kts | 57° |
| 2026-05-01 11:12 | 45.83892 | -90.94826 | 37143 ft | 503 kts | 57° |
| 2026-05-01 11:13 | 45.87438 | -90.86275 | 37146 ft | 503 kts | 57° |
| 2026-05-01 11:13 | 45.91002 | -90.77656 | 37143 ft | 503 kts | 57° |
| 2026-05-01 11:14 | 45.94589 | -90.68952 | 37131 ft | 503 kts | 57° |
| 2026-05-01 11:14 | 45.98125 | -90.60346 | 37130 ft | 503 kts | 57° |
| 2026-05-01 11:15 | 46.01684 | -90.51655 | 37133 ft | 502 kts | 57° |
| 2026-05-01 11:15 | 46.05202 | -90.43039 | 37135 ft | 502 kts | 57° |
| 2026-05-01 11:16 | 46.08741 | -90.34346 | 37136 ft | 502 kts | 57° |
| 2026-05-01 11:16 | 46.12253 | -90.25691 | 37133 ft | 502 kts | 57° |
| 2026-05-01 11:17 | 46.15788 | -90.16952 | 37132 ft | 502 kts | 57° |
| 2026-05-01 11:17 | 46.19303 | -90.08234 | 37131 ft | 501 kts | 58° |
| 2026-05-01 11:18 | 46.22777 | -89.99588 | 37132 ft | 501 kts | 58° |
| 2026-05-01 11:18 | 46.26267 | -89.90877 | 37127 ft | 501 kts | 58° |
| 2026-05-01 11:19 | 46.29766 | -89.82117 | 37128 ft | 501 kts | 58° |
| 2026-05-01 11:19 | 46.33251 | -89.73364 | 37124 ft | 501 kts | 58° |
| 2026-05-01 11:20 | 46.36728 | -89.64602 | 37121 ft | 501 kts | 58° |
| 2026-05-01 11:20 | 46.40170 | -89.55902 | 37123 ft | 500 kts | 58° |
| 2026-05-01 11:21 | 46.43624 | -89.47144 | 37131 ft | 500 kts | 58° |
| 2026-05-01 11:21 | 46.47070 | -89.38375 | 37127 ft | 500 kts | 58° |
| 2026-05-01 11:22 | 46.50506 | -89.29608 | 37125 ft | 500 kts | 58° |
| 2026-05-01 11:22 | 46.53933 | -89.20832 | 37126 ft | 500 kts | 58° |
| 2026-05-01 11:23 | 46.57359 | -89.12031 | 37124 ft | 500 kts | 58° |
| 2026-05-01 11:23 | 46.60758 | -89.03273 | 37118 ft | 499 kts | 58° |
| 2026-05-01 11:24 | 46.64164 | -88.94465 | 37116 ft | 499 kts | 58° |
| 2026-05-01 11:25 | 46.69262 | -88.81233 | 37116 ft | 499 kts | 59° |
| 2026-05-01 11:25 | 46.74309 | -88.68067 | 37111 ft | 499 kts | 59° |
| 2026-05-01 11:26 | 46.79386 | -88.54758 | 37108 ft | 499 kts | 59° |
| 2026-05-01 11:27 | 46.82754 | -88.45891 | 37103 ft | 499 kts | 59° |
| 2026-05-01 11:27 | 46.86125 | -88.36989 | 37105 ft | 499 kts | 59° |
| 2026-05-01 11:28 | 46.89470 | -88.28129 | 37110 ft | 500 kts | 59° |
| 2026-05-01 11:28 | 46.92808 | -88.19253 | 37122 ft | 501 kts | 59° |
| 2026-05-01 11:29 | 46.97836 | -88.05832 | 37127 ft | 500 kts | 59° |
| 2026-05-01 11:30 | 47.03285 | -87.92850 | 37120 ft | 498 kts | 54° |
| 2026-05-01 11:30 | 47.07157 | -87.84447 | 37134 ft | 499 kts | 54° |
| 2026-05-01 11:31 | 47.11041 | -87.76024 | 37133 ft | 499 kts | 54° |
| 2026-05-01 11:31 | 47.14890 | -87.67629 | 37108 ft | 499 kts | 54° |
| 2026-05-01 11:32 | 47.18762 | -87.59142 | 37109 ft | 498 kts | 54° |
| 2026-05-01 11:32 | 47.22612 | -87.50673 | 37111 ft | 498 kts | 54° |
| 2026-05-01 11:33 | 47.26449 | -87.42208 | 37104 ft | 499 kts | 54° |
| 2026-05-01 11:33 | 47.30291 | -87.33708 | 37101 ft | 499 kts | 54° |
| 2026-05-01 11:34 | 47.34113 | -87.25225 | 37101 ft | 499 kts | 54° |
| 2026-05-01 11:34 | 47.37944 | -87.16695 | 37102 ft | 498 kts | 55° |
| 2026-05-01 11:35 | 47.41768 | -87.08154 | 37113 ft | 498 kts | 55° |
| 2026-05-01 11:35 | 47.45590 | -86.99592 | 37099 ft | 499 kts | 55° |
| 2026-05-01 11:36 | 47.48748 | -86.92498 | 37105 ft | 499 kts | 55° |
| 2026-05-01 11:36 | 47.52559 | -86.83913 | 37102 ft | 499 kts | 55° |
| 2026-05-01 11:37 | 47.56375 | -86.75287 | 37097 ft | 499 kts | 55° |
| 2026-05-01 11:37 | 47.60169 | -86.66684 | 37098 ft | 498 kts | 55° |
| 2026-05-01 11:38 | 47.63940 | -86.58107 | 37095 ft | 499 kts | 56° |
| 2026-05-01 11:38 | 47.67729 | -86.49462 | 37095 ft | 500 kts | 56° |
| 2026-05-01 11:39 | 47.71509 | -86.40811 | 37098 ft | 500 kts | 56° |
| 2026-05-01 11:39 | 47.75288 | -86.32133 | 37101 ft | 500 kts | 56° |
| 2026-05-01 11:40 | 47.79048 | -86.23472 | 37096 ft | 499 kts | 56° |
| 2026-05-01 11:40 | 47.82817 | -86.14763 | 37095 ft | 499 kts | 56° |
| 2026-05-01 11:41 | 47.86572 | -86.06059 | 37094 ft | 500 kts | 56° |
| 2026-05-01 11:41 | 47.90299 | -85.97389 | 37097 ft | 500 kts | 56° |
| 2026-05-01 11:42 | 47.94056 | -85.88624 | 37097 ft | 500 kts | 56° |
| 2026-05-01 11:42 | 47.97788 | -85.79890 | 37092 ft | 499 kts | 56° |
| 2026-05-01 11:43 | 48.01510 | -85.71149 | 37093 ft | 499 kts | 57° |
| 2026-05-01 11:43 | 48.05217 | -85.62417 | 37096 ft | 500 kts | 57° |
| 2026-05-01 11:44 | 48.10793 | -85.49227 | 37097 ft | 500 kts | 57° |
| 2026-05-01 11:44 | 48.14491 | -85.40446 | 37096 ft | 500 kts | 57° |
| 2026-05-01 11:45 | 48.18181 | -85.31654 | 37095 ft | 499 kts | 57° |
| 2026-05-01 11:45 | 48.21881 | -85.22808 | 37094 ft | 499 kts | 57° |
| 2026-05-01 11:46 | 48.25565 | -85.13972 | 37094 ft | 499 kts | 57° |
| 2026-05-01 11:46 | 48.29221 | -85.05173 | 37094 ft | 499 kts | 57° |
| 2026-05-01 11:47 | 48.32891 | -84.96314 | 37092 ft | 499 kts | 57° |
| 2026-05-01 11:47 | 48.36537 | -84.87484 | 37091 ft | 498 kts | 57° |
| 2026-05-01 11:48 | 48.40195 | -84.78595 | 37093 ft | 498 kts | 57° |
| 2026-05-01 11:48 | 48.43853 | -84.69675 | 37092 ft | 499 kts | 57° |
| 2026-05-01 11:49 | 48.47470 | -84.60828 | 37091 ft | 500 kts | 58° |
| 2026-05-01 11:49 | 48.51105 | -84.51907 | 37091 ft | 499 kts | 58° |
| 2026-05-01 11:50 | 48.54744 | -84.42945 | 37091 ft | 499 kts | 58° |
| 2026-05-01 11:50 | 48.58349 | -84.34037 | 37093 ft | 499 kts | 58° |
| 2026-05-01 11:51 | 48.61971 | -84.25057 | 37083 ft | 499 kts | 58° |
| 2026-05-01 11:51 | 48.65557 | -84.16137 | 37083 ft | 499 kts | 58° |
| 2026-05-01 11:52 | 48.69165 | -84.07133 | 37080 ft | 499 kts | 58° |
| 2026-05-01 11:52 | 48.72765 | -83.98117 | 37080 ft | 499 kts | 58° |
| 2026-05-01 11:53 | 48.76329 | -83.89163 | 37078 ft | 499 kts | 58° |
| 2026-05-01 11:53 | 48.79916 | -83.80118 | 37075 ft | 500 kts | 58° |
| 2026-05-01 11:54 | 48.83488 | -83.71081 | 37075 ft | 501 kts | 58° |
| 2026-05-01 11:54 | 48.87085 | -83.61952 | 37070 ft | 501 kts | 58° |
| 2026-05-01 11:55 | 48.90641 | -83.52893 | 37069 ft | 501 kts | 58° |
| 2026-05-01 11:55 | 48.94179 | -83.43850 | 37069 ft | 500 kts | 58° |
| 2026-05-01 11:56 | 48.97730 | -83.34742 | 37070 ft | 500 kts | 59° |
| 2026-05-01 11:56 | 49.01283 | -83.25599 | 37067 ft | 501 kts | 59° |
| 2026-05-01 11:57 | 49.04816 | -83.16476 | 37067 ft | 501 kts | 59° |
| 2026-05-01 11:57 | 49.08338 | -83.07348 | 37067 ft | 501 kts | 59° |
| 2026-05-01 11:58 | 49.11876 | -82.98148 | 37067 ft | 501 kts | 59° |
| 2026-05-01 11:59 | 49.17143 | -82.84392 | 37064 ft | 501 kts | 59° |
| 2026-05-01 11:59 | 49.20663 | -82.75157 | 37064 ft | 501 kts | 59° |
| 2026-05-01 12:00 | 49.25913 | -82.61322 | 37064 ft | 501 kts | 59° |
| 2026-05-01 12:01 | 49.31125 | -82.47518 | 37038 ft | 500 kts | 60° |
| 2026-05-01 12:01 | 49.34599 | -82.38277 | 37035 ft | 499 kts | 60° |
| 2026-05-01 12:02 | 49.38050 | -82.29064 | 37038 ft | 500 kts | 60° |
| 2026-05-01 12:02 | 49.41502 | -82.19815 | 37041 ft | 500 kts | 60° |
| 2026-05-01 12:03 | 49.44943 | -82.10562 | 37045 ft | 500 kts | 60° |
| 2026-05-01 12:03 | 49.48392 | -82.01255 | 37049 ft | 500 kts | 60° |
| 2026-05-01 12:04 | 49.51826 | -81.91956 | 37055 ft | 499 kts | 61° |
| 2026-05-01 12:04 | 49.55255 | -81.82637 | 37056 ft | 499 kts | 61° |
| 2026-05-01 12:05 | 49.58649 | -81.73380 | 37056 ft | 500 kts | 61° |
| 2026-05-01 12:05 | 49.63767 | -81.59358 | 37054 ft | 500 kts | 61° |
| 2026-05-01 12:06 | 49.67171 | -81.49991 | 37054 ft | 499 kts | 62° |
| 2026-05-01 12:06 | 49.70561 | -81.40630 | 37051 ft | 499 kts | 62° |
| 2026-05-01 12:07 | 49.73941 | -81.31258 | 37059 ft | 499 kts | 62° |
| 2026-05-01 12:07 | 49.77320 | -81.21853 | 37062 ft | 500 kts | 62° |
| 2026-05-01 12:08 | 49.80665 | -81.12511 | 37062 ft | 500 kts | 62° |
| 2026-05-01 12:08 | 49.84029 | -81.03086 | 37056 ft | 500 kts | 62° |
| 2026-05-01 12:09 | 49.87394 | -80.93617 | 37056 ft | 499 kts | 62° |
| 2026-05-01 12:09 | 49.90726 | -80.84213 | 37053 ft | 499 kts | 63° |
| 2026-05-01 12:10 | 49.95718 | -80.70054 | 37053 ft | 499 kts | 63° |
| 2026-05-01 12:11 | 50.00690 | -80.55876 | 37053 ft | 499 kts | 63° |
| 2026-05-01 12:11 | 50.03985 | -80.46435 | 37047 ft | 499 kts | 63° |
| 2026-05-01 12:12 | 50.07312 | -80.36865 | 37044 ft | 499 kts | 63° |
| 2026-05-01 12:12 | 50.10603 | -80.27365 | 37046 ft | 498 kts | 63° |
| 2026-05-01 12:13 | 50.13865 | -80.17913 | 37044 ft | 498 kts | 63° |
| 2026-05-01 12:13 | 50.17149 | -80.08365 | 37046 ft | 498 kts | 63° |
| 2026-05-01 12:14 | 50.20423 | -79.98811 | 37042 ft | 498 kts | 63° |
| 2026-05-01 12:14 | 50.23960 | -79.89559 | 37042 ft | 499 kts | 59° |
| 2026-05-01 12:15 | 50.27683 | -79.80532 | 37039 ft | 498 kts | 59° |
| 2026-05-01 12:15 | 50.31400 | -79.71352 | 37044 ft | 499 kts | 59° |
| 2026-05-01 12:16 | 50.35067 | -79.62099 | 37049 ft | 499 kts | 60° |
| 2026-05-01 12:16 | 50.38698 | -79.52857 | 37045 ft | 499 kts | 60° |
| 2026-05-01 12:17 | 50.42320 | -79.43603 | 37047 ft | 499 kts | 60° |
| 2026-05-01 12:17 | 50.45920 | -79.34383 | 37044 ft | 499 kts | 60° |
| 2026-05-01 12:18 | 50.49538 | -79.25087 | 37041 ft | 499 kts | 60° |
| 2026-05-01 12:18 | 50.53147 | -79.15778 | 37042 ft | 499 kts | 60° |
| 2026-05-01 12:19 | 50.56736 | -79.06487 | 37044 ft | 499 kts | 60° |
| 2026-05-01 12:19 | 50.60338 | -78.97132 | 37043 ft | 499 kts | 61° |
| 2026-05-01 12:20 | 50.63934 | -78.87757 | 37035 ft | 499 kts | 61° |
| 2026-05-01 12:20 | 50.67496 | -78.78439 | 37036 ft | 499 kts | 61° |
| 2026-05-01 12:21 | 50.71081 | -78.69023 | 37029 ft | 499 kts | 61° |
| 2026-05-01 12:21 | 50.74652 | -78.59610 | 37032 ft | 500 kts | 61° |
| 2026-05-01 12:22 | 50.77599 | -78.51820 | 37019 ft | 500 kts | 62° |
| 2026-05-01 12:22 | 50.81160 | -78.42373 | 37014 ft | 499 kts | 62° |
| 2026-05-01 12:23 | 50.84709 | -78.32922 | 37031 ft | 499 kts | 62° |
| 2026-05-01 12:23 | 50.88810 | -78.21957 | 37026 ft | 499 kts | 62° |
| 2026-05-01 12:24 | 50.91763 | -78.14032 | 37019 ft | 499 kts | 62° |
| 2026-05-01 12:24 | 50.95269 | -78.04594 | 37017 ft | 500 kts | 62° |
| 2026-05-01 12:25 | 51.00563 | -77.90274 | 37017 ft | 500 kts | 62° |
| 2026-05-01 12:26 | 51.04073 | -77.80734 | 37014 ft | 499 kts | 62° |
| 2026-05-01 12:26 | 51.09292 | -77.66485 | 37007 ft | 499 kts | 62° |
| 2026-05-01 12:27 | 51.14523 | -77.52123 | 36988 ft | 500 kts | 63° |
| 2026-05-01 12:28 | 51.19724 | -77.37760 | 37004 ft | 501 kts | 63° |
| 2026-05-01 12:29 | 51.24921 | -77.23331 | 36995 ft | 500 kts | 63° |
| 2026-05-01 12:29 | 51.30100 | -77.08869 | 36998 ft | 500 kts | 63° |
| 2026-05-01 12:30 | 51.35271 | -76.94347 | 36991 ft | 501 kts | 63° |
| 2026-05-01 12:31 | 51.38712 | -76.84635 | 36984 ft | 501 kts | 63° |
| 2026-05-01 12:31 | 51.42123 | -76.74972 | 36982 ft | 501 kts | 64° |
| 2026-05-01 12:32 | 51.45564 | -76.65188 | 36980 ft | 501 kts | 64° |
| 2026-05-01 12:32 | 51.50666 | -76.50609 | 36958 ft | 501 kts | 64° |
| 2026-05-01 12:33 | 51.54057 | -76.40873 | 36974 ft | 500 kts | 64° |
| 2026-05-01 12:33 | 51.57454 | -76.31079 | 36975 ft | 500 kts | 64° |
| 2026-05-01 12:34 | 51.60838 | -76.21287 | 36953 ft | 500 kts | 64° |
| 2026-05-01 12:34 | 51.64216 | -76.11472 | 36946 ft | 500 kts | 64° |
| 2026-05-01 12:35 | 51.67556 | -76.01731 | 36964 ft | 500 kts | 63° |
| 2026-05-01 12:35 | 51.70849 | -75.91993 | 36953 ft | 497 kts | 65° |
| 2026-05-01 12:36 | 51.74211 | -75.82157 | 36946 ft | 501 kts | 64° |
| 2026-05-01 12:36 | 51.77567 | -75.72302 | 36942 ft | 501 kts | 65° |
| 2026-05-01 12:37 | 51.80898 | -75.62444 | 36941 ft | 500 kts | 65° |
| 2026-05-01 12:37 | 51.84198 | -75.52624 | 36939 ft | 500 kts | 65° |
| 2026-05-01 12:38 | 51.87533 | -75.42665 | 36923 ft | 500 kts | 65° |
| 2026-05-01 12:38 | 51.90844 | -75.32737 | 36930 ft | 501 kts | 65° |
| 2026-05-01 12:39 | 51.94140 | -75.22812 | 37063 ft | 501 kts | 65° |
| 2026-05-01 12:39 | 51.95795 | -75.17816 | 37249 ft | 501 kts | 65° |
| 2026-05-01 12:39 | 51.97421 | -75.12899 | 37365 ft | 501 kts | 65° |
| 2026-05-01 12:40 | 51.99068 | -75.07904 | 37530 ft | 501 kts | 65° |
| 2026-05-01 12:40 | 52.00710 | -75.02917 | 37696 ft | 501 kts | 65° |
| 2026-05-01 12:40 | 52.02352 | -74.97923 | 37853 ft | 501 kts | 65° |
| 2026-05-01 12:40 | 52.03992 | -74.92921 | 37997 ft | 501 kts | 65° |
| 2026-05-01 12:41 | 52.05632 | -74.87908 | 38128 ft | 501 kts | 65° |
| 2026-05-01 12:41 | 52.07262 | -74.82918 | 38257 ft | 502 kts | 65° |
| 2026-05-01 12:41 | 52.08901 | -74.77889 | 38406 ft | 502 kts | 65° |
| 2026-05-01 12:41 | 52.10529 | -74.72883 | 38513 ft | 502 kts | 65° |
| 2026-05-01 12:42 | 52.13785 | -74.62840 | 38704 ft | 502 kts | 65° |
| 2026-05-01 12:42 | 52.17029 | -74.52794 | 38860 ft | 502 kts | 65° |
| 2026-05-01 12:43 | 52.20272 | -74.42708 | 38900 ft | 503 kts | 65° |
| 2026-05-01 12:43 | 52.23511 | -74.32597 | 38892 ft | 502 kts | 65° |
| 2026-05-01 12:44 | 52.26743 | -74.22466 | 38901 ft | 502 kts | 66° |
| 2026-05-01 12:45 | 52.33146 | -74.02265 | 38884 ft | 502 kts | 66° |
| 2026-05-01 12:45 | 52.36341 | -73.92124 | 38865 ft | 502 kts | 66° |
| 2026-05-01 12:46 | 52.39537 | -73.81937 | 38878 ft | 502 kts | 66° |
| 2026-05-01 12:46 | 52.42709 | -73.71787 | 38875 ft | 501 kts | 66° |
| 2026-05-01 12:47 | 52.45865 | -73.61641 | 38868 ft | 501 kts | 66° |
| 2026-05-01 12:47 | 52.49029 | -73.51424 | 38868 ft | 501 kts | 66° |
| 2026-05-01 12:48 | 52.52177 | -73.41221 | 38862 ft | 501 kts | 66° |
| 2026-05-01 12:48 | 52.55303 | -73.31045 | 38861 ft | 501 kts | 66° |
| 2026-05-01 12:49 | 52.58434 | -73.20811 | 38858 ft | 500 kts | 67° |
| 2026-05-01 12:49 | 52.61550 | -73.10582 | 38856 ft | 500 kts | 67° |
| 2026-05-01 12:50 | 52.64651 | -73.00358 | 38869 ft | 500 kts | 67° |
| 2026-05-01 12:50 | 52.67745 | -72.90110 | 38854 ft | 500 kts | 67° |
| 2026-05-01 12:51 | 52.70842 | -72.79811 | 38874 ft | 500 kts | 67° |
| 2026-05-01 12:52 | 52.75441 | -72.64438 | 38848 ft | 500 kts | 68° |
| 2026-05-01 12:52 | 52.80029 | -72.49000 | 38863 ft | 500 kts | 68° |
| 2026-05-01 12:53 | 52.84605 | -72.33503 | 38869 ft | 500 kts | 68° |
| 2026-05-01 12:54 | 52.87622 | -72.23230 | 38870 ft | 500 kts | 68° |
| 2026-05-01 12:54 | 52.92179 | -72.07626 | 38877 ft | 501 kts | 68° |
| 2026-05-01 12:55 | 52.96718 | -71.91981 | 38880 ft | 502 kts | 68° |
| 2026-05-01 12:56 | 52.99713 | -71.81604 | 38884 ft | 502 kts | 68° |
| 2026-05-01 12:56 | 53.02724 | -71.71123 | 38884 ft | 502 kts | 69° |
| 2026-05-01 12:57 | 53.05708 | -71.60693 | 38886 ft | 501 kts | 69° |
| 2026-05-01 12:57 | 53.10198 | -71.44901 | 38899 ft | 503 kts | 69° |
| 2026-05-01 12:58 | 53.13163 | -71.34420 | 38898 ft | 503 kts | 69° |
| 2026-05-01 12:59 | 53.17620 | -71.18572 | 38911 ft | 503 kts | 69° |
| 2026-05-01 12:59 | 53.22050 | -71.02712 | 38914 ft | 503 kts | 69° |
| 2026-05-01 13:00 | 53.26453 | -70.86841 | 38919 ft | 503 kts | 69° |
| 2026-05-01 13:01 | 53.30854 | -70.70867 | 38923 ft | 503 kts | 69° |
| 2026-05-01 13:02 | 53.35200 | -70.54985 | 38923 ft | 503 kts | 69° |
| 2026-05-01 13:07 | 53.66476 | -69.36691 | 38959 ft | 504 kts | 71° |
| 2026-05-01 13:08 | 53.69237 | -69.25897 | 38945 ft | 504 kts | 71° |
| 2026-05-01 13:08 | 53.72003 | -69.15026 | 38954 ft | 505 kts | 71° |
| 2026-05-01 13:09 | 53.74763 | -69.04125 | 38964 ft | 506 kts | 71° |
| 2026-05-01 13:09 | 53.77065 | -68.94997 | 38966 ft | 506 kts | 71° |
| 2026-05-01 13:10 | 53.79827 | -68.83993 | 38968 ft | 506 kts | 71° |
| 2026-05-01 13:10 | 53.82548 | -68.73100 | 38966 ft | 506 kts | 71° |
| 2026-05-01 13:11 | 53.85293 | -68.62056 | 38963 ft | 506 kts | 71° |
| 2026-05-01 13:11 | 53.87995 | -68.51128 | 38953 ft | 506 kts | 71° |
| 2026-05-01 13:12 | 53.90705 | -68.40115 | 38963 ft | 505 kts | 71° |
| 2026-05-01 13:12 | 53.93392 | -68.29137 | 38961 ft | 505 kts | 71° |
| 2026-05-01 13:13 | 53.96082 | -68.18095 | 38962 ft | 505 kts | 71° |
| 2026-05-01 13:13 | 53.98762 | -68.07037 | 38961 ft | 505 kts | 71° |
| 2026-05-01 13:14 | 54.01427 | -67.95986 | 38968 ft | 505 kts | 71° |
| 2026-05-01 13:14 | 54.04080 | -67.84925 | 38972 ft | 505 kts | 71° |
| 2026-05-01 13:15 | 54.06707 | -67.73923 | 38969 ft | 505 kts | 71° |
| 2026-05-01 13:15 | 54.09340 | -67.62834 | 38977 ft | 505 kts | 72° |
| 2026-05-01 13:16 | 54.11963 | -67.51732 | 38980 ft | 505 kts | 72° |
| 2026-05-01 13:16 | 54.14571 | -67.40635 | 38988 ft | 505 kts | 72° |
| 2026-05-01 13:17 | 54.19770 | -67.18338 | 38986 ft | 506 kts | 72° |
| 2026-05-01 13:18 | 54.23637 | -67.01605 | 39003 ft | 505 kts | 72° |
| 2026-05-01 13:18 | 54.26216 | -66.90369 | 39003 ft | 506 kts | 72° |
| 2026-05-01 13:19 | 54.28774 | -66.79166 | 39005 ft | 505 kts | 72° |
| 2026-05-01 13:20 | 54.32590 | -66.62349 | 39002 ft | 506 kts | 72° |
| 2026-05-01 13:20 | 54.35113 | -66.51148 | 39015 ft | 506 kts | 72° |
| 2026-05-01 13:21 | 54.38912 | -66.34174 | 39014 ft | 506 kts | 72° |
| 2026-05-01 13:21 | 54.41413 | -66.22926 | 39023 ft | 506 kts | 73° |
| 2026-05-01 13:22 | 54.43912 | -66.11624 | 39023 ft | 506 kts | 73° |
| 2026-05-01 13:22 | 54.46404 | -66.00289 | 39026 ft | 506 kts | 73° |
| 2026-05-01 13:23 | 54.48879 | -65.88976 | 39040 ft | 507 kts | 73° |
| 2026-05-01 13:23 | 54.51335 | -65.77682 | 39039 ft | 507 kts | 73° |
| 2026-05-01 13:24 | 54.53798 | -65.66296 | 39041 ft | 506 kts | 73° |
| 2026-05-01 13:25 | 54.57468 | -65.49212 | 39053 ft | 506 kts | 73° |
| 2026-05-01 13:25 | 54.59896 | -65.37830 | 39066 ft | 507 kts | 73° |
| 2026-05-01 13:26 | 54.62316 | -65.26422 | 39058 ft | 507 kts | 73° |
| 2026-05-01 13:26 | 54.64728 | -65.14991 | 39064 ft | 507 kts | 73° |
| 2026-05-01 13:27 | 54.67126 | -65.03560 | 39083 ft | 507 kts | 73° |
| 2026-05-01 13:27 | 54.70715 | -64.86324 | 39078 ft | 507 kts | 73° |
| 2026-05-01 13:28 | 54.74266 | -64.69125 | 39099 ft | 506 kts | 73° |
| 2026-05-01 13:29 | 54.78963 | -64.46145 | 39113 ft | 506 kts | 74° |
| 2026-05-01 13:31 | 54.85913 | -64.11649 | 39124 ft | 505 kts | 74° |
| 2026-05-01 13:32 | 54.91611 | -63.82903 | 39133 ft | 502 kts | 74° |
| 2026-05-01 13:33 | 54.97240 | -63.54079 | 39141 ft | 503 kts | 74° |
| 2026-05-01 13:34 | 55.01661 | -63.31139 | 39141 ft | 501 kts | 75° |
| 2026-05-01 13:35 | 55.04957 | -63.13855 | 39147 ft | 500 kts | 75° |
| 2026-05-01 13:36 | 55.08232 | -62.96525 | 39143 ft | 500 kts | 75° |
| 2026-05-01 13:36 | 55.11470 | -62.79228 | 39149 ft | 500 kts | 75° |
| 2026-05-01 13:37 | 55.13606 | -62.67734 | 39149 ft | 501 kts | 75° |
| 2026-05-01 13:37 | 55.15751 | -62.56118 | 39128 ft | 500 kts | 75° |
| 2026-05-01 13:38 | 55.18926 | -62.38791 | 39131 ft | 500 kts | 75° |
| 2026-05-01 13:39 | 55.21037 | -62.27181 | 39137 ft | 500 kts | 75° |
| 2026-05-01 13:39 | 55.23134 | -62.15573 | 39143 ft | 500 kts | 75° |
| 2026-05-01 13:40 | 55.25223 | -62.03934 | 39131 ft | 501 kts | 76° |
| 2026-05-01 13:40 | 55.27303 | -61.92274 | 39132 ft | 501 kts | 76° |
| 2026-05-01 13:41 | 55.29371 | -61.80605 | 39119 ft | 501 kts | 76° |
| 2026-05-01 13:41 | 55.31420 | -61.68973 | 39120 ft | 501 kts | 76° |
| 2026-05-01 13:42 | 55.33470 | -61.57260 | 39126 ft | 501 kts | 76° |
| 2026-05-01 13:42 | 55.35503 | -61.45561 | 39115 ft | 501 kts | 76° |
| 2026-05-01 13:43 | 55.37529 | -61.33831 | 39122 ft | 501 kts | 76° |
| 2026-05-01 13:43 | 55.39546 | -61.22074 | 39123 ft | 501 kts | 76° |
| 2026-05-01 13:44 | 55.41548 | -61.10331 | 39120 ft | 501 kts | 76° |
| 2026-05-01 13:44 | 55.43536 | -60.98588 | 39120 ft | 501 kts | 76° |
| 2026-05-01 13:45 | 55.45506 | -60.86878 | 39128 ft | 500 kts | 76° |
| 2026-05-01 13:45 | 55.47485 | -60.75032 | 39129 ft | 500 kts | 76° |
| 2026-05-01 13:46 | 55.49422 | -60.63353 | 39125 ft | 501 kts | 77° |
| 2026-05-01 13:46 | 55.51368 | -60.51551 | 39126 ft | 501 kts | 77° |
| 2026-05-01 13:47 | 55.53303 | -60.39725 | 39126 ft | 501 kts | 77° |
| 2026-05-01 13:47 | 55.55228 | -60.27886 | 39127 ft | 501 kts | 77° |
| 2026-05-01 13:48 | 55.57129 | -60.16110 | 39130 ft | 501 kts | 77° |
| 2026-05-01 13:48 | 55.59026 | -60.04281 | 39138 ft | 501 kts | 77° |
| 2026-05-01 13:49 | 55.60914 | -59.92425 | 39138 ft | 501 kts | 77° |
| 2026-05-01 13:49 | 55.62792 | -59.80546 | 39151 ft | 501 kts | 77° |
| 2026-05-01 13:50 | 55.64662 | -59.68631 | 39151 ft | 501 kts | 78° |
| 2026-05-01 13:50 | 55.66516 | -59.56741 | 39157 ft | 501 kts | 78° |
| 2026-05-01 13:51 | 55.68347 | -59.44905 | 39151 ft | 501 kts | 78° |
| 2026-05-01 13:51 | 55.70168 | -59.33051 | 39160 ft | 501 kts | 78° |
| 2026-05-01 13:52 | 55.71990 | -59.21110 | 39165 ft | 501 kts | 78° |
| 2026-05-01 13:52 | 55.73803 | -59.09139 | 39169 ft | 501 kts | 78° |
| 2026-05-01 13:53 | 55.75291 | -58.99242 | 39176 ft | 501 kts | 78° |
| 2026-05-01 13:53 | 55.78259 | -58.79329 | 39180 ft | 501 kts | 78° |
| 2026-05-01 13:54 | 55.79726 | -58.69392 | 39186 ft | 501 kts | 78° |
| 2026-05-01 13:54 | 55.81493 | -58.57343 | 39182 ft | 501 kts | 79° |
| 2026-05-01 13:55 | 55.83240 | -58.45338 | 39195 ft | 502 kts | 79° |
| 2026-05-01 13:55 | 55.84965 | -58.33388 | 39195 ft | 502 kts | 79° |
| 2026-05-01 13:56 | 55.86696 | -58.21312 | 39195 ft | 502 kts | 79° |
| 2026-05-01 13:56 | 55.88413 | -58.09241 | 39198 ft | 502 kts | 79° |
| 2026-05-01 13:57 | 55.90116 | -57.97178 | 39197 ft | 502 kts | 79° |
| 2026-05-01 13:57 | 55.91811 | -57.85070 | 39185 ft | 503 kts | 79° |
| 2026-05-01 13:58 | 55.93487 | -57.73003 | 39207 ft | 504 kts | 80° |
| 2026-05-01 13:58 | 55.95164 | -57.60834 | 39209 ft | 504 kts | 80° |
| 2026-05-01 13:59 | 55.96827 | -57.48669 | 39213 ft | 504 kts | 80° |
| 2026-05-01 13:59 | 55.98475 | -57.36517 | 39213 ft | 504 kts | 80° |
| 2026-05-01 14:00 | 56.00113 | -57.24338 | 39219 ft | 504 kts | 80° |
| 2026-05-01 14:00 | 56.01745 | -57.12107 | 39224 ft | 505 kts | 80° |
| 2026-05-01 14:01 | 56.03652 | -57.00068 | 39218 ft | 510 kts | 70° |
| 2026-05-01 14:01 | 56.06896 | -56.88748 | 39224 ft | 512 kts | 63° |
| 2026-05-01 14:02 | 56.10486 | -56.77690 | 39236 ft | 513 kts | 62° |
| 2026-05-01 14:02 | 56.14095 | -56.66664 | 39236 ft | 513 kts | 62° |
| 2026-05-01 14:03 | 56.17660 | -56.55602 | 39234 ft | 512 kts | 62° |
| 2026-05-01 14:03 | 56.21202 | -56.44488 | 39235 ft | 512 kts | 62° |
| 2026-05-01 14:04 | 56.24707 | -56.33423 | 39236 ft | 512 kts | 63° |
| 2026-05-01 14:04 | 56.28208 | -56.22324 | 39246 ft | 512 kts | 63° |
| 2026-05-01 14:05 | 56.31703 | -56.11195 | 39245 ft | 512 kts | 63° |
| 2026-05-01 14:05 | 56.35196 | -56.00023 | 39255 ft | 511 kts | 63° |
| 2026-05-01 14:06 | 56.38663 | -55.88881 | 39254 ft | 511 kts | 63° |
| 2026-05-01 14:06 | 56.42150 | -55.77620 | 39243 ft | 511 kts | 63° |
| 2026-05-01 14:07 | 56.45587 | -55.66471 | 39262 ft | 510 kts | 63° |
| 2026-05-01 14:08 | 56.50750 | -55.49618 | 39266 ft | 510 kts | 63° |
| 2026-05-01 14:08 | 56.54161 | -55.38418 | 39271 ft | 511 kts | 63° |
| 2026-05-01 14:09 | 56.57584 | -55.27126 | 39271 ft | 511 kts | 63° |
| 2026-05-01 14:09 | 56.60996 | -55.15816 | 39279 ft | 510 kts | 63° |
| 2026-05-01 14:10 | 56.64404 | -55.04465 | 39279 ft | 510 kts | 63° |
| 2026-05-01 14:10 | 56.67788 | -54.93138 | 39282 ft | 510 kts | 63° |
| 2026-05-01 14:11 | 56.71150 | -54.81832 | 39279 ft | 510 kts | 64° |
| 2026-05-01 14:11 | 56.76198 | -54.64748 | 39287 ft | 510 kts | 64° |
| 2026-05-01 14:12 | 56.79559 | -54.53309 | 39272 ft | 511 kts | 64° |
| 2026-05-01 14:12 | 56.82908 | -54.41849 | 39451 ft | 510 kts | 64° |
| 2026-05-01 14:13 | 56.84574 | -54.36129 | 39640 ft | 509 kts | 64° |
| 2026-05-01 14:13 | 56.85673 | -54.32348 | 39718 ft | 509 kts | 64° |
| 2026-05-01 14:13 | 56.87889 | -54.24705 | 39842 ft | 509 kts | 64° |
| 2026-05-01 14:13 | 56.89538 | -54.18999 | 39945 ft | 509 kts | 64° |
| 2026-05-01 14:14 | 56.91193 | -54.13261 | 40061 ft | 509 kts | 64° |
| 2026-05-01 14:14 | 56.92839 | -54.07538 | 40153 ft | 509 kts | 64° |
| 2026-05-01 14:14 | 56.96134 | -53.96040 | 40295 ft | 510 kts | 64° |
| 2026-05-01 14:15 | 56.99431 | -53.84476 | 40304 ft | 512 kts | 64° |
| 2026-05-01 14:15 | 57.02698 | -53.72966 | 40302 ft | 511 kts | 64° |
| 2026-05-01 14:16 | 57.05969 | -53.61378 | 40306 ft | 511 kts | 64° |
| 2026-05-01 14:16 | 57.09239 | -53.49740 | 40306 ft | 511 kts | 64° |
| 2026-05-01 14:17 | 57.12499 | -53.38070 | 40306 ft | 511 kts | 64° |
| 2026-05-01 14:17 | 57.15738 | -53.26423 | 40309 ft | 512 kts | 64° |
| 2026-05-01 14:18 | 57.18962 | -53.14773 | 40306 ft | 512 kts | 64° |
| 2026-05-01 14:18 | 57.21628 | -53.05088 | 40320 ft | 510 kts | 64° |
| 2026-05-01 14:19 | 57.25378 | -52.91400 | 40319 ft | 510 kts | 64° |
| 2026-05-01 14:19 | 57.28566 | -52.79697 | 40317 ft | 511 kts | 64° |
| 2026-05-01 14:20 | 57.33342 | -52.62055 | 40320 ft | 511 kts | 64° |
| 2026-05-01 14:21 | 57.36504 | -52.50294 | 40325 ft | 511 kts | 64° |
| 2026-05-01 14:21 | 57.39669 | -52.38465 | 40335 ft | 511 kts | 64° |
| 2026-05-01 14:22 | 57.44378 | -52.20747 | 40323 ft | 513 kts | 64° |
| 2026-05-01 14:22 | 57.47543 | -52.08764 | 40332 ft | 513 kts | 64° |
| 2026-05-01 14:23 | 57.50645 | -51.96951 | 40336 ft | 513 kts | 65° |
| 2026-05-01 14:23 | 57.53769 | -51.84996 | 40341 ft | 513 kts | 65° |
| 2026-05-01 14:24 | 57.56886 | -51.73001 | 40334 ft | 513 kts | 64° |
| 2026-05-01 14:24 | 57.59977 | -51.61044 | 40334 ft | 513 kts | 64° |
| 2026-05-01 14:25 | 57.63050 | -51.49089 | 40342 ft | 513 kts | 65° |
| 2026-05-01 14:25 | 57.66124 | -51.37068 | 40344 ft | 513 kts | 65° |
| 2026-05-01 14:26 | 57.70720 | -51.18972 | 40344 ft | 513 kts | 65° |
| 2026-05-01 14:27 | 57.73761 | -51.06917 | 40334 ft | 514 kts | 65° |
| 2026-05-01 14:27 | 57.76830 | -50.94687 | 40341 ft | 514 kts | 65° |
| 2026-05-01 14:28 | 57.81355 | -50.76528 | 40345 ft | 514 kts | 65° |
| 2026-05-01 14:28 | 57.84370 | -50.64343 | 40351 ft | 514 kts | 65° |
| 2026-05-01 14:29 | 57.87371 | -50.52149 | 40337 ft | 516 kts | 65° |
| 2026-05-01 14:30 | 57.93344 | -50.27675 | 40345 ft | 515 kts | 65° |
| 2026-05-01 14:31 | 57.97790 | -50.09276 | 40359 ft | 514 kts | 65° |
| 2026-05-01 14:31 | 58.00425 | -49.96711 | 40358 ft | 515 kts | 74° |
| 2026-05-01 14:32 | 58.02355 | -49.83700 | 40349 ft | 516 kts | 75° |
| 2026-05-01 14:32 | 58.04179 | -49.70691 | 40351 ft | 516 kts | 75° |
| 2026-05-01 14:33 | 58.05993 | -49.57575 | 40349 ft | 516 kts | 75° |
| 2026-05-01 14:33 | 58.07804 | -49.44444 | 40346 ft | 516 kts | 75° |
| 2026-05-01 14:34 | 58.09604 | -49.31321 | 40352 ft | 516 kts | 76° |
| 2026-05-01 14:34 | 58.11388 | -49.18211 | 40352 ft | 516 kts | 76° |
| 2026-05-01 14:35 | 58.13156 | -49.05101 | 40352 ft | 516 kts | 76° |
| 2026-05-01 14:35 | 58.14921 | -48.91899 | 40359 ft | 516 kts | 76° |
| 2026-05-01 14:36 | 58.16663 | -48.78754 | 40356 ft | 516 kts | 76° |
| 2026-05-01 14:36 | 58.18400 | -48.65527 | 40354 ft | 517 kts | 76° |
| 2026-05-01 14:37 | 58.20114 | -48.52369 | 40354 ft | 517 kts | 76° |
| 2026-05-01 14:37 | 58.21823 | -48.39127 | 40357 ft | 517 kts | 76° |
| 2026-05-01 14:38 | 58.23522 | -48.25840 | 40347 ft | 517 kts | 76° |
| 2026-05-01 14:38 | 58.25206 | -48.12553 | 40358 ft | 517 kts | 76° |
| 2026-05-01 14:39 | 58.26865 | -47.99339 | 40359 ft | 517 kts | 76° |
| 2026-05-01 14:39 | 58.28520 | -47.86040 | 40360 ft | 518 kts | 76° |
| 2026-05-01 14:40 | 58.30163 | -47.72717 | 40350 ft | 518 kts | 76° |
| 2026-05-01 14:40 | 58.31793 | -47.59369 | 40353 ft | 518 kts | 76° |
| 2026-05-01 14:41 | 58.33407 | -47.46027 | 40362 ft | 518 kts | 77° |
| 2026-05-01 14:41 | 58.34738 | -47.34921 | 40362 ft | 518 kts | 77° |
| 2026-05-01 14:42 | 58.36332 | -47.21512 | 40363 ft | 518 kts | 77° |
| 2026-05-01 14:42 | 58.37908 | -47.08118 | 40350 ft | 518 kts | 77° |
| 2026-05-01 14:43 | 58.39473 | -46.94695 | 40346 ft | 518 kts | 77° |
| 2026-05-01 14:43 | 58.41025 | -46.81248 | 40359 ft | 518 kts | 77° |
| 2026-05-01 14:44 | 58.42550 | -46.67902 | 40359 ft | 518 kts | 77° |
| 2026-05-01 14:44 | 58.44828 | -46.47709 | 40363 ft | 518 kts | 77° |
| 2026-05-01 14:45 | 58.47064 | -46.27592 | 40355 ft | 518 kts | 77° |
| 2026-05-01 14:46 | 58.48546 | -46.14081 | 40354 ft | 518 kts | 77° |
| 2026-05-01 14:46 | 58.50738 | -45.93833 | 40346 ft | 518 kts | 78° |
| 2026-05-01 14:47 | 58.52173 | -45.80402 | 40357 ft | 519 kts | 78° |
| 2026-05-01 14:48 | 58.54317 | -45.60064 | 40346 ft | 519 kts | 78° |
| 2026-05-01 14:48 | 58.56431 | -45.39682 | 40352 ft | 519 kts | 78° |
| 2026-05-01 14:49 | 58.59187 | -45.12599 | 40347 ft | 519 kts | 78° |
| 2026-05-01 14:50 | 58.61890 | -44.85417 | 40345 ft | 520 kts | 78° |
| 2026-05-01 14:51 | 58.63885 | -44.64955 | 40338 ft | 520 kts | 79° |
| 2026-05-01 14:52 | 58.65839 | -44.44559 | 40336 ft | 520 kts | 79° |
| 2026-05-01 14:53 | 58.67773 | -44.24007 | 40332 ft | 522 kts | 79° |
| 2026-05-01 14:53 | 58.69052 | -44.10212 | 40329 ft | 522 kts | 79° |
| 2026-05-01 14:54 | 58.70312 | -43.96449 | 40331 ft | 522 kts | 79° |
| 2026-05-01 14:54 | 58.71549 | -43.82764 | 40318 ft | 522 kts | 79° |
| 2026-05-01 14:55 | 58.72783 | -43.68939 | 40323 ft | 522 kts | 79° |
| 2026-05-01 14:55 | 58.73998 | -43.55162 | 40312 ft | 524 kts | 79° |
| 2026-05-01 14:56 | 58.75203 | -43.41328 | 40315 ft | 524 kts | 79° |
| 2026-05-01 14:56 | 58.76394 | -43.27457 | 40306 ft | 524 kts | 80° |
| 2026-05-01 14:57 | 58.77562 | -43.13679 | 40306 ft | 524 kts | 80° |
| 2026-05-01 14:57 | 58.79291 | -42.92935 | 40302 ft | 523 kts | 80° |
| 2026-05-01 14:58 | 58.80433 | -42.79005 | 40301 ft | 523 kts | 80° |
| 2026-05-01 14:58 | 58.81553 | -42.65154 | 40289 ft | 523 kts | 80° |
| 2026-05-01 14:59 | 58.82660 | -42.51262 | 40295 ft | 523 kts | 80° |
| 2026-05-01 14:59 | 58.83746 | -42.37441 | 40272 ft | 523 kts | 80° |
| 2026-05-01 15:00 | 58.85354 | -42.16607 | 40290 ft | 523 kts | 81° |
| 2026-05-01 15:01 | 58.86405 | -42.02730 | 40291 ft | 523 kts | 81° |
| 2026-05-01 15:01 | 58.87441 | -41.88864 | 40290 ft | 522 kts | 81° |
| 2026-05-01 15:02 | 58.88469 | -41.74890 | 40291 ft | 522 kts | 81° |
| 2026-05-01 15:02 | 58.89475 | -41.60998 | 40290 ft | 522 kts | 81° |
| 2026-05-01 15:03 | 58.90467 | -41.47076 | 40289 ft | 522 kts | 81° |
| 2026-05-01 15:03 | 58.91443 | -41.33187 | 40288 ft | 523 kts | 81° |
| 2026-05-01 15:04 | 58.92406 | -41.19250 | 40271 ft | 523 kts | 81° |
| 2026-05-01 15:04 | 58.93354 | -41.05292 | 40278 ft | 523 kts | 81° |
| 2026-05-01 15:05 | 58.94289 | -40.91309 | 40279 ft | 523 kts | 82° |
| 2026-05-01 15:05 | 58.95206 | -40.77366 | 40288 ft | 523 kts | 82° |
| 2026-05-01 15:06 | 58.96111 | -40.63359 | 40274 ft | 524 kts | 82° |
| 2026-05-01 15:06 | 58.97005 | -40.49293 | 40273 ft | 524 kts | 82° |
| 2026-05-01 15:07 | 58.97881 | -40.35268 | 40277 ft | 524 kts | 82° |
| 2026-05-01 15:07 | 58.98736 | -40.21309 | 40273 ft | 524 kts | 82° |
| 2026-05-01 15:08 | 58.99580 | -40.07294 | 40270 ft | 524 kts | 82° |
| 2026-05-01 15:08 | 59.00385 | -39.93212 | 40266 ft | 525 kts | 84° |
| 2026-05-01 15:09 | 59.00905 | -39.79090 | 40271 ft | 526 kts | 85° |
| 2026-05-01 15:09 | 59.01349 | -39.64908 | 40260 ft | 526 kts | 85° |
| 2026-05-01 15:10 | 59.01819 | -39.50733 | 40262 ft | 526 kts | 85° |
| 2026-05-01 15:10 | 59.02536 | -39.29579 | 40262 ft | 526 kts | 85° |
| 2026-05-01 15:11 | 59.03225 | -39.08341 | 40252 ft | 525 kts | 85° |
| 2026-05-01 15:12 | 59.03664 | -38.94168 | 40248 ft | 526 kts | 85° |
| 2026-05-01 15:12 | 59.04294 | -38.72860 | 40249 ft | 526 kts | 85° |
| 2026-05-01 15:14 | 59.05264 | -38.37428 | 40239 ft | 526 kts | 86° |
| 2026-05-01 15:14 | 59.05799 | -38.16170 | 40232 ft | 527 kts | 86° |
| 2026-05-01 15:15 | 59.06461 | -37.87732 | 40234 ft | 527 kts | 86° |
| 2026-05-01 15:16 | 59.07060 | -37.59277 | 40245 ft | 527 kts | 87° |
| 2026-05-01 15:18 | 59.07723 | -37.23626 | 40228 ft | 528 kts | 87° |
| 2026-05-01 15:19 | 59.08181 | -36.95167 | 40234 ft | 528 kts | 87° |
| 2026-05-01 15:19 | 59.08486 | -36.73730 | 40230 ft | 529 kts | 88° |
| 2026-05-01 15:20 | 59.08754 | -36.52316 | 40233 ft | 529 kts | 88° |
| 2026-05-01 15:21 | 59.08915 | -36.37975 | 40234 ft | 529 kts | 88° |
| 2026-05-01 15:21 | 59.09058 | -36.23706 | 40237 ft | 529 kts | 88° |
| 2026-05-01 15:22 | 59.09245 | -36.02205 | 40236 ft | 531 kts | 88° |
| 2026-05-01 15:22 | 59.09349 | -35.87957 | 40226 ft | 531 kts | 88° |
| 2026-05-01 15:23 | 59.09439 | -35.73579 | 40235 ft | 531 kts | 88° |
| 2026-05-01 15:23 | 59.09512 | -35.59130 | 40219 ft | 531 kts | 88° |
| 2026-05-01 15:24 | 59.09569 | -35.44843 | 40230 ft | 531 kts | 89° |
| 2026-05-01 15:24 | 59.09611 | -35.30452 | 40234 ft | 532 kts | 89° |
| 2026-05-01 15:25 | 59.09637 | -35.16045 | 40232 ft | 533 kts | 89° |
| 2026-05-01 15:25 | 59.09646 | -35.04034 | 40228 ft | 533 kts | 89° |
| 2026-05-01 15:26 | 59.09643 | -34.89594 | 40233 ft | 533 kts | 89° |
| 2026-05-01 15:26 | 59.09623 | -34.75220 | 40229 ft | 533 kts | 89° |
| 2026-05-01 15:27 | 59.09587 | -34.60716 | 40226 ft | 533 kts | 89° |
| 2026-05-01 15:28 | 59.09504 | -34.39197 | 40232 ft | 533 kts | 89° |
| 2026-05-01 15:28 | 59.09429 | -34.24745 | 40230 ft | 533 kts | 89° |
| 2026-05-01 15:29 | 59.09286 | -34.03185 | 40235 ft | 533 kts | 90° |
| 2026-05-01 15:30 | 59.09039 | -33.74320 | 40234 ft | 534 kts | 90° |
| 2026-05-01 15:31 | 59.08547 | -33.30940 | 40225 ft | 535 kts | 90° |
| 2026-05-01 15:32 | 59.08140 | -33.02124 | 40245 ft | 534 kts | 90° |
| 2026-05-01 15:34 | 59.07406 | -32.58727 | 40232 ft | 535 kts | 91° |